Los Angeles Regional Airport Weather

KWHP 301753Z 00000KT 10SM SKC 20/04 A2997

KAPV 191256Z AUTO 05004KT 10SM FEW075 SCT090 BKN110 18/18 A2996 RMK AO2 SLP144 T01830178 $

KAVX 301751Z AUTO 19005KT 7SM SCT002 16/14 A2995 RMK AO2 PRESFR SLP126 T01610139 10200 20133 57007 TSNO

KBFL 301754Z 32015KT 10SM SCT055 SCT080 19/10 A2999 RMK AO2 SLP151 T01940100 10194 20106 58005

KBUR 301753Z 12006KT 10SM CLR 22/04 A2993 RMK AO2 SLP123 T02170039 10217 20128 56012 $

KCMA 301755Z 20005KT 10SM CLR 18/13 A2994 RMK AO2 SLP145 T01830128 10189 20094 55010

KCNO 301753Z 25008KT 10SM SCT250 23/05 A2994 RMK AO2 SLP133 T02280050 10228 20089 58011

KEMT 301845Z 20007KT 10SM CLR 25/05 A2993

KFUL 301753Z VRB04KT 10SM CLR 22/08 A2992 RMK AO2 SLP130 T02170083 10217 20117 58011

KHHR 301753Z 23007KT 10SM CLR 20/13 A2994 RMK AO2 SLP136 T02000133 10200 20139 58008 $

KL35 301835Z AUTO 25013G22KT 7SM CLR 12/M06 A2999 RMK AO2

KLAX 301753Z 25006KT 7SM FEW002 FEW022 SCT090 19/13 A2994 RMK AO2 SLP136 T01940133 10200 20128 58008

KLGB 301753Z 18007KT 10SM CLR 19/11 A2993 RMK AO2 SLP136 T01940111 10200 20133 58008

KONT 301753Z 23006KT 10SM FEW200 FEW250 22/03 A2993 RMK AO2 SLP124 T02170028 10222 20100 58010

KOXR 301751Z 27010KT 9SM CLR 18/13 A2994 RMK AO2 SLP137 T01780128 10183 20106 55005 $

KPMD 301753Z AUTO 30021G31KT 10SM CLR 20/07 A2993 RMK AO2 PK WND 29032/1737 SLP117 T02000072 10211 20133 56013

KPOC 301747Z 28007KT 10SM CLR 19/04 A2996

KRAL 301753Z 24005KT 10SM CLR 21/04 A2993 RMK AO2 SLP122 T02110044 10217 20106 58009

KSMO 301751Z 21008KT 9SM CLR 18/13 A2995 RMK AO2 SLP139 T01830133 10189 20122 56008 $

KSNA 301753Z 20011KT 10SM SCT300 21/11 A2994 RMK AO2 SLP136 T02060106 10206 20128 58004

KTOA 292347Z 29018KT 10SM FEW180 24/02 A2999

KTRM 301752Z AUTO 15009KT 10SM CLR 27/04 A2976 RMK AO2 SLP079 T02720039 10272 20100 58026

KVNY 301751Z 11004KT 10SM CLR 22/07 A2993 RMK AO2 SLP126 T02220072 10222 20117 56012

KWJF 301756Z 27025G35KT 10SM CLR 19/07 A2993 RMK AO2 PK WND 27035/1748 SLP123 T01940067 10200 20144 56013

How to read METARs